createdAt,value
2022-12-08T00:01:19.806Z,35.28
2022-12-08T00:03:47.558Z,36.25
2022-12-08T00:06:42.623Z,36.47
2022-12-08T00:09:24.287Z,29.73
2022-12-08T00:12:02.318Z,28.48
2022-12-08T00:14:35.355Z,32.05
2022-12-08T00:17:03.463Z,24.77
2022-12-08T00:19:31.452Z,32.05
2022-12-08T00:21:59.205Z,23.33
2022-12-08T00:24:31.422Z,21.42
2022-12-08T00:26:58.846Z,28.92
2022-12-08T00:29:25.936Z,21.98
2022-12-08T00:31:53.194Z,30.70
2022-12-08T00:34:21.103Z,29.92
2022-12-08T00:36:48.241Z,22.60
2022-12-08T00:39:16.450Z,23.25
2022-12-08T00:42:03.218Z,19.58
2022-12-08T00:44:30.336Z,19.65
2022-12-08T00:46:57.741Z,20.17
2022-12-08T00:49:24.966Z,20.88
2022-12-08T00:51:52.378Z,18.73
2022-12-08T00:54:20.909Z,20.52
2022-12-08T00:56:48.081Z,17.10
2022-12-08T00:59:15.316Z,21.55
2022-12-08T01:01:44.501Z,19.90
2022-12-08T01:04:15.576Z,22.48
2022-12-08T01:06:44.128Z,21.37
2022-12-08T01:09:13.024Z,22.13
2022-12-08T01:11:40.123Z,19.58
2022-12-08T01:14:07.579Z,22.55
2022-12-08T01:16:36.048Z,20.50
2022-12-08T01:19:03.927Z,20.67
2022-12-08T01:21:31.270Z,22.80
2022-12-08T01:24:00.315Z,23.27
2022-12-08T01:26:27.554Z,24.98
2022-12-08T01:28:54.992Z,17.92
2022-12-08T01:31:22.788Z,18.73
2022-12-08T01:33:50.455Z,22.02
2022-12-08T01:36:26.167Z,20.25
2022-12-08T01:38:54.134Z,21.52
2022-12-08T01:41:24.006Z,42.10
2022-12-08T01:43:56.787Z,22.73
2022-12-08T01:46:25.020Z,23.58
2022-12-08T01:48:55.869Z,23.15
2022-12-08T01:51:23.159Z,22.17
2022-12-08T01:53:50.777Z,22.45
2022-12-08T01:56:28.509Z,29.02
2022-12-08T01:58:55.997Z,26.50
2022-12-08T02:01:23.863Z,20.58
2022-12-08T02:04:02.477Z,23.67
2022-12-08T02:06:33.359Z,27.02
2022-12-08T02:09:01.577Z,29.35
2022-12-08T02:11:29.526Z,33.72
2022-12-08T02:13:57.885Z,131.95
2022-12-08T02:16:31.337Z,85.65
2022-12-08T02:19:30.313Z,39.65
2022-12-08T02:21:57.059Z,52.72
2022-12-08T02:24:41.343Z,83.95
2022-12-08T02:27:18.525Z,51.15
2022-12-08T02:30:08.307Z,48.42
2022-12-08T02:33:00.417Z,31.48
2022-12-08T02:35:46.436Z,36.85
2022-12-08T02:38:35.117Z,33.65
2022-12-08T02:41:08.611Z,29.37
2022-12-08T02:43:41.994Z,35.40
2022-12-08T02:46:12.132Z,33.42
2022-12-08T02:48:39.550Z,34.10
2022-12-08T02:51:06.602Z,74.85
2022-12-08T02:53:34.862Z,65.55
2022-12-08T02:56:25.428Z,100.68
2022-12-08T02:59:31.156Z,108.93
2022-12-08T03:02:04.505Z,51.22
2022-12-08T03:04:48.788Z,65.55
2022-12-08T03:07:22.422Z,50.08
2022-12-08T03:10:00.243Z,46.07
2022-12-08T03:12:48.839Z,49.22
2022-12-08T03:15:19.113Z,49.63
2022-12-08T03:17:50.192Z,66.30
2022-12-08T03:20:21.171Z,55.35
2022-12-08T03:22:49.793Z,58.72
2022-12-08T03:25:21.575Z,37.60
2022-12-08T03:27:49.306Z,41.40
2022-12-08T03:30:16.570Z,37.60
2022-12-08T03:32:49.409Z,45.17
2022-12-08T03:35:23.020Z,40.42
2022-12-08T03:37:50.467Z,47.92
2022-12-08T03:40:19.789Z,37.22
2022-12-08T03:42:46.906Z,38.90
2022-12-08T03:45:13.973Z,36.83
2022-12-08T03:47:41.302Z,32.08
2022-12-08T03:50:08.689Z,43.42
2022-12-08T03:52:35.761Z,48.03
2022-12-08T03:55:03.349Z,49.33
2022-12-08T03:57:30.421Z,45.00
2022-12-08T03:59:57.553Z,46.78
2022-12-08T04:02:25.026Z,45.47
2022-12-08T04:04:52.433Z,43.53
2022-12-08T04:07:19.510Z,42.30
2022-12-08T04:09:46.572Z,49.55
2022-12-08T04:12:13.930Z,40.08
2022-12-08T04:14:41.020Z,44.47
2022-12-08T04:17:08.066Z,40.50
2022-12-08T04:19:35.453Z,43.63
2022-12-08T04:22:02.563Z,46.42
2022-12-08T04:24:29.601Z,42.47
2022-12-08T04:26:56.990Z,41.08
2022-12-08T04:29:24.065Z,43.72
2022-12-08T04:31:51.181Z,44.08
2022-12-08T04:34:18.589Z,43.75
2022-12-08T04:36:45.647Z,43.40
2022-12-08T04:39:12.803Z,42.60
2022-12-08T04:41:40.170Z,52.90
2022-12-08T04:44:07.244Z,57.00
2022-12-08T04:46:35.189Z,53.92
2022-12-08T04:49:05.226Z,68.22
2022-12-08T04:51:32.283Z,60.30
2022-12-08T04:53:59.340Z,67.37
2022-12-08T04:56:26.691Z,63.42
2022-12-08T04:58:53.750Z,63.13
2022-12-08T05:01:20.926Z,53.50
2022-12-08T05:03:48.374Z,70.87
2022-12-08T05:06:15.512Z,54.63
2022-12-08T05:08:43.416Z,45.42
2022-12-08T05:11:11.782Z,78.45
2022-12-08T05:13:38.928Z,89.18
2022-12-08T05:16:11.741Z,64.22
2022-12-08T05:18:40.421Z,75.65
2022-12-08T05:21:08.231Z,59.88
2022-12-08T05:23:35.459Z,68.18
2022-12-08T05:26:02.825Z,78.03
2022-12-08T05:28:41.300Z,60.72
2022-12-08T05:31:10.176Z,66.32
2022-12-08T05:33:37.311Z,64.53
2022-12-08T05:36:04.528Z,64.30
2022-12-08T05:38:31.858Z,61.90
2022-12-08T05:40:58.938Z,52.47
2022-12-08T05:43:27.054Z,46.10
2022-12-08T05:45:54.637Z,52.58
2022-12-08T05:48:21.834Z,53.90
2022-12-08T05:50:51.365Z,66.47
2022-12-08T05:53:20.129Z,61.30
2022-12-08T05:55:47.472Z,59.75
2022-12-08T05:58:17.450Z,60.12
2022-12-08T06:00:46.604Z,64.68
2022-12-08T06:03:15.303Z,61.35
2022-12-08T06:05:43.624Z,50.17
2022-12-08T06:08:10.879Z,54.95
2022-12-08T06:10:39.900Z,54.53
2022-12-08T06:13:07.029Z,55.00
2022-12-08T06:15:35.344Z,71.47
2022-12-08T06:18:02.734Z,62.25
2022-12-08T06:20:29.814Z,67.85
2022-12-08T06:22:57.334Z,65.18
2022-12-08T06:25:25.124Z,63.72
2022-12-08T06:27:52.462Z,66.32
2022-12-08T06:30:19.538Z,61.42
2022-12-08T06:32:47.120Z,51.67
2022-12-08T06:35:14.185Z,64.12
2022-12-08T06:37:41.252Z,63.17
2022-12-08T06:40:09.042Z,59.22
2022-12-08T06:42:45.125Z,55.83
2022-12-08T06:45:17.101Z,54.38
2022-12-08T06:47:44.231Z,55.88
2022-12-08T06:50:12.798Z,57.88
2022-12-08T06:52:51.781Z,50.30
2022-12-08T06:55:57.387Z,54.78
2022-12-08T06:58:13.594Z,49.00
2022-12-08T07:00:41.948Z,68.12
2022-12-08T07:03:10.331Z,67.55
2022-12-08T07:05:38.160Z,64.18
2022-12-08T07:08:06.961Z,110.43
2022-12-08T07:10:34.647Z,72.85
2022-12-08T07:13:02.418Z,63.90
2022-12-08T07:15:29.494Z,57.40
2022-12-08T07:18:00.069Z,44.30
2022-12-08T07:20:29.254Z,69.00
2022-12-08T07:22:56.410Z,59.97
2022-12-08T07:25:23.805Z,70.45
2022-12-08T07:27:52.665Z,76.78
2022-12-08T07:30:19.872Z,67.05
2022-12-08T07:32:46.929Z,54.58
2022-12-08T07:35:14.320Z,65.85
2022-12-08T07:37:41.395Z,64.55
2022-12-08T07:40:09.798Z,51.67
2022-12-08T07:42:37.159Z,51.42
2022-12-08T07:45:04.540Z,50.03
2022-12-08T07:47:31.664Z,47.35
2022-12-08T07:49:58.992Z,43.72
2022-12-08T07:52:26.054Z,48.22
2022-12-08T07:54:53.158Z,49.75
2022-12-08T07:57:20.549Z,52.75
2022-12-08T07:59:47.625Z,45.35
2022-12-08T08:02:24.818Z,44.50
2022-12-08T08:04:53.425Z,47.67
2022-12-08T08:07:20.706Z,44.53
2022-12-08T08:09:47.752Z,44.70
2022-12-08T08:12:30.679Z,47.40
2022-12-08T08:14:59.754Z,49.65
2022-12-08T08:17:28.016Z,40.83
2022-12-08T08:19:55.256Z,41.50
2022-12-08T08:22:22.338Z,48.33
2022-12-08T08:24:49.775Z,45.20
2022-12-08T08:27:16.995Z,53.13
2022-12-08T08:29:44.268Z,47.50
2022-12-08T08:32:11.649Z,50.72
2022-12-08T08:34:38.848Z,44.20
2022-12-08T08:37:05.981Z,51.30
2022-12-08T08:39:33.377Z,41.88
2022-12-08T08:42:00.470Z,50.17
2022-12-08T08:44:27.782Z,47.17
2022-12-08T08:46:55.261Z,47.40
2022-12-08T08:49:22.457Z,52.10
2022-12-08T08:51:49.658Z,46.80
2022-12-08T08:54:17.030Z,53.08
2022-12-08T08:56:44.143Z,45.38
2022-12-08T08:59:11.378Z,51.90
2022-12-08T09:01:38.830Z,54.75
2022-12-08T09:04:06.220Z,58.08
2022-12-08T09:06:33.389Z,51.88
2022-12-08T09:09:00.821Z,50.90
2022-12-08T09:11:27.925Z,47.17
2022-12-08T09:13:55.253Z,50.90
2022-12-08T09:16:23.119Z,40.88
2022-12-08T09:18:50.900Z,53.47
2022-12-08T09:21:23.726Z,42.15
2022-12-08T09:23:52.994Z,38.67
2022-12-08T09:26:22.499Z,37.63
2022-12-08T09:28:53.944Z,37.40
2022-12-08T09:31:22.512Z,44.97
2022-12-08T09:33:53.195Z,38.63
2022-12-08T09:36:20.520Z,35.97
2022-12-08T09:38:54.690Z,39.00
2022-12-08T09:41:41.812Z,38.22
2022-12-08T09:44:50.320Z,42.03
2022-12-08T09:47:20.537Z,31.30
2022-12-08T09:50:00.533Z,32.50
2022-12-08T09:52:34.842Z,41.70
2022-12-08T09:55:06.568Z,32.72
2022-12-08T09:57:33.778Z,32.83
2022-12-08T10:00:05.524Z,32.95
2022-12-08T10:02:33.655Z,38.40
2022-12-08T10:05:00.910Z,35.75
2022-12-08T10:08:03.337Z,41.10
2022-12-08T10:10:43.102Z,36.95
2022-12-08T10:13:46.584Z,31.10
2022-12-08T10:16:30.067Z,34.80
2022-12-08T10:19:11.452Z,28.38
2022-12-08T10:21:40.740Z,27.30
2022-12-08T10:24:39.469Z,28.08
2022-12-08T10:27:11.562Z,23.70
2022-12-08T10:29:40.346Z,24.70
2022-12-08T10:32:19.338Z,26.20
2022-12-08T10:35:22.386Z,30.40
2022-12-08T10:38:01.564Z,23.83
2022-12-08T10:40:36.898Z,23.62
2022-12-08T10:43:14.942Z,27.58
2022-12-08T10:45:45.032Z,27.37
2022-12-08T10:48:21.858Z,27.70
2022-12-08T10:50:56.446Z,25.67
2022-12-08T10:53:29.644Z,23.92
2022-12-08T10:56:02.909Z,26.62
2022-12-08T10:58:46.100Z,26.50
2022-12-08T11:01:17.839Z,25.83
2022-12-08T11:03:46.576Z,23.10
2022-12-08T11:06:37.243Z,24.10
2022-12-08T11:09:24.769Z,28.75
2022-12-08T11:11:53.871Z,24.70
2022-12-08T11:14:34.857Z,34.05
2022-12-08T11:17:08.093Z,25.65
2022-12-08T11:19:39.836Z,30.10
2022-12-08T11:22:24.293Z,24.92
2022-12-08T11:25:08.389Z,22.87
2022-12-08T11:27:36.844Z,38.70
2022-12-08T11:30:15.008Z,23.50
2022-12-08T11:32:44.843Z,23.58
2022-12-08T11:35:26.815Z,26.20
2022-12-08T11:38:03.334Z,23.40
2022-12-08T11:40:44.192Z,22.87
2022-12-08T11:43:46.189Z,20.15
2022-12-08T11:46:18.807Z,25.67
2022-12-08T11:49:06.275Z,21.75
2022-12-08T11:51:42.909Z,23.23
2022-12-08T11:54:22.169Z,24.52
2022-12-08T11:56:52.725Z,28.05
2022-12-08T11:59:41.801Z,26.08
2022-12-08T12:02:15.315Z,26.77
2022-12-08T12:05:10.759Z,25.17
2022-12-08T12:07:44.562Z,29.33
2022-12-08T12:10:18.027Z,23.48
2022-12-08T12:13:16.017Z,25.62
2022-12-08T12:16:17.096Z,29.63
2022-12-08T12:18:52.035Z,37.58
2022-12-08T12:21:22.650Z,18.77
2022-12-08T12:23:52.782Z,21.85
2022-12-08T12:26:22.716Z,32.40
2022-12-08T12:28:52.657Z,24.08
2022-12-08T12:31:31.837Z,21.75
2022-12-08T12:34:16.845Z,19.25
2022-12-08T12:36:56.803Z,23.95
2022-12-08T12:39:32.097Z,24.83
2022-12-08T12:42:03.951Z,22.10
2022-12-08T12:44:33.963Z,21.27
2022-12-08T12:47:03.150Z,23.08
2022-12-08T12:49:39.460Z,24.73
2022-12-08T12:52:15.759Z,24.20
2022-12-08T12:54:43.698Z,24.60
2022-12-08T12:57:10.959Z,20.73
2022-12-08T12:59:47.823Z,25.35
2022-12-08T13:02:32.933Z,24.52
2022-12-08T13:05:02.754Z,23.42
2022-12-08T13:07:33.478Z,24.25
2022-12-08T13:10:09.675Z,24.27
2022-12-08T13:12:37.074Z,23.00
2022-12-08T13:15:06.439Z,22.35
2022-12-08T13:17:36.487Z,22.85
2022-12-08T13:20:06.937Z,21.17
2022-12-08T13:22:50.134Z,29.33
2022-12-08T13:25:46.444Z,24.30
2022-12-08T13:28:16.187Z,26.30
2022-12-08T13:30:50.681Z,21.75
2022-12-08T13:33:39.692Z,29.17
2022-12-08T13:36:23.652Z,30.00
2022-12-08T13:38:55.284Z,23.62
2022-12-08T13:41:29.959Z,25.88
2022-12-08T13:47:32.402Z,26.00
2022-12-08T13:59:07.369Z,25.60
2022-12-08T14:01:44.947Z,18.85
2022-12-08T14:04:42.589Z,22.15
2022-12-08T14:07:11.371Z,34.05
2022-12-08T14:09:39.753Z,24.73
2022-12-08T14:12:13.188Z,24.63
2022-12-08T14:17:29.525Z,26.48
2022-12-08T14:20:06.853Z,21.10
2022-12-08T14:22:38.890Z,24.10
2022-12-08T14:25:10.195Z,21.30
2022-12-08T14:27:37.939Z,20.50
2022-12-08T14:30:14.304Z,37.90
2022-12-08T14:32:48.537Z,40.63
2022-12-08T14:35:20.739Z,21.27
2022-12-08T14:37:49.380Z,22.87
2022-12-08T14:40:37.537Z,23.20
2022-12-08T14:43:07.732Z,24.50
2022-12-08T14:45:35.094Z,22.05
2022-12-08T14:48:27.613Z,23.80
2022-12-08T14:51:05.991Z,26.12
2022-12-08T14:53:39.745Z,23.75
2022-12-08T14:56:09.601Z,33.78
2022-12-08T14:58:36.733Z,22.90
2022-12-08T15:01:06.554Z,21.58
2022-12-08T15:03:34.377Z,24.30
2022-12-08T15:06:05.883Z,25.88
2022-12-08T15:08:33.437Z,21.98
2022-12-08T15:11:21.708Z,22.17
2022-12-08T15:13:51.239Z,22.55
2022-12-08T15:16:26.231Z,28.55
2022-12-08T15:19:16.957Z,25.65
2022-12-08T15:21:45.423Z,23.77
2022-12-08T15:24:13.491Z,26.77
2022-12-08T15:26:50.750Z,26.50
2022-12-08T15:29:27.402Z,30.45
2022-12-08T15:31:57.361Z,27.67
2022-12-08T15:34:25.106Z,29.87
2022-12-08T15:36:53.903Z,31.90
2022-12-08T15:39:39.305Z,25.17
2022-12-08T15:42:11.599Z,30.70
2022-12-08T15:44:39.122Z,29.67
2022-12-08T15:47:16.445Z,26.60
2022-12-08T15:49:44.153Z,29.00
2022-12-08T15:52:17.023Z,25.55
2022-12-08T15:54:44.106Z,58.95
2022-12-08T15:57:30.022Z,46.70
2022-12-08T16:00:19.046Z,44.22
2022-12-08T16:05:50.025Z,38.25
2022-12-08T16:08:47.544Z,40.40
2022-12-08T16:12:04.757Z,34.13
2022-12-08T16:15:38.753Z,26.37
2022-12-08T16:17:14.542Z,24.08
2022-12-08T16:19:42.084Z,29.85
2022-12-08T16:22:51.656Z,27.17
2022-12-08T16:25:17.769Z,31.02
2022-12-08T16:28:17.247Z,29.00
2022-12-08T16:30:34.174Z,32.88
2022-12-08T16:33:01.598Z,29.40
2022-12-08T16:35:30.281Z,24.67
2022-12-08T16:37:58.059Z,26.02
2022-12-08T16:40:28.265Z,24.50
2022-12-08T16:42:55.309Z,34.85
2022-12-08T16:45:25.267Z,26.42
2022-12-08T16:47:57.163Z,26.27
2022-12-08T16:50:32.838Z,38.38
2022-12-08T16:53:05.486Z,37.25
2022-12-08T16:55:33.665Z,34.72
2022-12-08T16:58:01.075Z,31.70
2022-12-08T17:00:29.347Z,72.40
2022-12-08T17:02:56.923Z,48.78
2022-12-08T17:05:24.939Z,46.92
2022-12-08T17:07:53.011Z,28.42
2022-12-08T17:10:23.593Z,25.27
2022-12-08T17:12:51.170Z,22.27
2022-12-08T17:15:21.988Z,22.70
2022-12-08T17:17:49.591Z,21.67
2022-12-08T17:20:19.937Z,22.08
2022-12-08T17:22:47.189Z,21.08
2022-12-08T17:25:14.754Z,23.17
2022-12-08T17:27:42.386Z,29.02
2022-12-08T17:30:12.534Z,26.12
2022-12-08T17:32:39.915Z,29.65
2022-12-08T17:35:07.785Z,36.95
2022-12-08T17:37:35.320Z,28.60
2022-12-08T17:40:03.039Z,29.15
2022-12-08T17:42:30.522Z,28.35
2022-12-08T17:44:57.590Z,21.70
2022-12-08T17:47:24.957Z,20.33
2022-12-08T17:49:52.170Z,24.35
2022-12-08T17:52:19.227Z,23.12
2022-12-08T17:54:46.607Z,27.45
2022-12-08T17:57:13.769Z,23.98
2022-12-08T17:59:40.838Z,25.15
2022-12-08T18:02:12.084Z,24.95
2022-12-08T18:04:39.613Z,24.75
2022-12-08T18:07:06.660Z,33.78
2022-12-08T18:09:33.953Z,29.50
2022-12-08T18:12:01.370Z,35.15
2022-12-08T18:14:28.514Z,30.80
2022-12-08T18:16:55.678Z,28.65
2022-12-08T18:19:23.229Z,28.45
2022-12-08T18:21:50.410Z,25.98
2022-12-08T18:24:22.234Z,27.13
2022-12-08T18:26:52.116Z,30.95
2022-12-08T18:29:20.564Z,25.33
2022-12-08T18:31:47.891Z,34.13
2022-12-08T18:34:15.261Z,39.42
2022-12-08T18:36:42.378Z,33.50
2022-12-08T18:39:29.874Z,35.30
2022-12-08T18:41:58.480Z,38.53
2022-12-08T18:44:25.641Z,37.95
2022-12-08T18:46:52.709Z,43.60
2022-12-08T18:49:20.467Z,34.58
2022-12-08T18:51:47.791Z,40.00
2022-12-08T18:54:14.834Z,29.95
2022-12-08T18:56:42.183Z,28.90
2022-12-08T18:59:11.461Z,34.65
2022-12-08T19:01:41.304Z,32.10
2022-12-08T19:04:27.924Z,43.15
2022-12-08T19:06:56.432Z,75.22
2022-12-08T19:09:26.031Z,90.30
2022-12-08T19:11:53.160Z,105.50
2022-12-08T19:14:25.856Z,51.45
2022-12-08T19:16:55.119Z,51.72
2022-12-08T19:19:22.203Z,38.75
2022-12-08T19:21:49.559Z,34.30
2022-12-08T19:24:16.916Z,38.90
2022-12-08T19:26:44.206Z,31.70
2022-12-08T19:29:11.545Z,34.00
2022-12-08T19:31:39.276Z,31.83
2022-12-08T19:34:06.807Z,27.70
2022-12-08T19:36:35.672Z,30.98
2022-12-08T19:39:22.696Z,31.70
2022-12-08T19:42:09.200Z,27.27
2022-12-08T19:44:54.723Z,29.85
2022-12-08T19:47:26.697Z,27.33
2022-12-08T19:49:55.105Z,25.65
2022-12-08T19:52:22.387Z,22.23
2022-12-08T19:54:51.417Z,29.17
2022-12-08T19:57:20.466Z,24.15
2022-12-08T19:59:50.464Z,26.52
2022-12-08T20:02:22.169Z,28.48
2022-12-08T20:04:49.671Z,25.62
2022-12-08T20:07:16.744Z,29.17
2022-12-08T20:09:43.832Z,25.60
2022-12-08T20:12:11.181Z,24.02
2022-12-08T20:14:42.706Z,27.00
2022-12-08T20:17:13.158Z,24.92
2022-12-08T20:19:40.371Z,27.40
2022-12-08T20:22:07.452Z,27.85
2022-12-08T20:24:35.860Z,30.12
2022-12-08T20:27:02.969Z,33.75
2022-12-08T20:29:30.033Z,32.33
2022-12-08T20:31:57.467Z,27.52
2022-12-08T20:34:24.684Z,23.70
2022-12-08T20:36:51.874Z,32.80
2022-12-08T20:39:19.303Z,27.52
2022-12-08T20:41:46.734Z,29.90
2022-12-08T20:44:13.882Z,27.92
2022-12-08T20:46:46.270Z,30.27
2022-12-08T20:49:16.384Z,35.53
2022-12-08T20:51:44.497Z,29.10
2022-12-08T20:54:11.942Z,33.10
2022-12-08T20:56:44.755Z,27.95
2022-12-08T20:59:18.121Z,33.53
2022-12-08T21:01:45.509Z,32.75
2022-12-08T21:04:13.368Z,30.80
2022-12-08T21:06:40.931Z,35.55
2022-12-08T21:09:08.794Z,32.58
2022-12-08T21:11:36.261Z,27.30
2022-12-08T21:14:03.869Z,26.80
2022-12-08T21:16:31.091Z,31.77
2022-12-08T21:18:58.314Z,35.25
2022-12-08T21:21:25.726Z,30.23
2022-12-08T21:23:53.567Z,31.98
2022-12-08T21:26:22.057Z,34.33
2022-12-08T21:28:49.484Z,32.17
2022-12-08T21:31:19.111Z,31.58
2022-12-08T21:33:46.454Z,32.75
2022-12-08T21:36:16.810Z,34.17
2022-12-08T21:38:44.698Z,30.92
2022-12-08T21:41:14.491Z,33.60
2022-12-08T21:43:42.495Z,36.38
2022-12-08T21:46:17.128Z,34.53
2022-12-08T21:48:44.713Z,30.55
2022-12-08T21:51:11.999Z,32.85
2022-12-08T21:53:39.289Z,36.95
2022-12-08T21:56:10.006Z,32.88
2022-12-08T21:58:39.509Z,34.05
2022-12-08T22:01:08.602Z,33.45
2022-12-08T22:03:37.662Z,33.15
2022-12-08T22:06:09.882Z,31.02
2022-12-08T22:08:37.433Z,36.28
2022-12-08T22:11:05.212Z,39.88
2022-12-08T22:13:36.651Z,39.35
2022-12-08T22:16:08.613Z,35.97
2022-12-08T22:18:36.536Z,31.87
2022-12-08T22:21:12.135Z,36.10
2022-12-08T22:23:39.605Z,40.63
2022-12-08T22:26:08.366Z,38.72
2022-12-08T22:28:41.162Z,36.35
2022-12-08T22:31:22.300Z,34.00
2022-12-08T22:33:50.574Z,34.10
2022-12-08T22:36:24.244Z,32.92
2022-12-08T22:38:51.925Z,38.45
2022-12-08T22:41:19.864Z,36.75
2022-12-08T22:43:48.054Z,33.15
2022-12-08T22:46:20.813Z,33.40
2022-12-08T22:48:48.744Z,37.30
2022-12-08T22:51:16.131Z,38.15
2022-12-08T22:53:43.887Z,40.55
2022-12-08T22:56:12.692Z,35.25
2022-12-08T22:58:40.637Z,36.30
2022-12-08T23:01:08.507Z,36.40
2022-12-08T23:03:36.230Z,35.92
2022-12-08T23:06:12.391Z,32.85
2022-12-08T23:08:40.095Z,32.25
2022-12-08T23:11:07.293Z,36.90
2022-12-08T23:13:34.605Z,38.15
2022-12-08T23:16:01.984Z,31.45
2022-12-08T23:18:29.048Z,34.95
2022-12-08T23:20:56.259Z,32.47
2022-12-08T23:23:23.615Z,32.80
2022-12-08T23:25:50.666Z,34.78
2022-12-08T23:28:17.724Z,37.50
2022-12-08T23:30:45.232Z,37.78
2022-12-08T23:33:12.656Z,34.80
2022-12-08T23:35:39.827Z,35.72
2022-12-08T23:38:07.171Z,31.35
2022-12-08T23:40:34.674Z,35.13
2022-12-08T23:43:02.033Z,40.47
2022-12-08T23:45:29.662Z,34.70
2022-12-08T23:47:56.860Z,33.08
2022-12-08T23:50:24.030Z,32.33
2022-12-08T23:52:51.459Z,35.08
2022-12-08T23:55:18.499Z,32.13
2022-12-08T23:57:45.587Z,34.03
